Flight Track Log - Related Links

Times and Time Zones

All times are in EDT time to prevent confusion due to time zone crossing. See the PDT4522 flight status page for this flight to view local times or setup timezone preferences in your user account.

Time Position Orientation Groundspeed Altitude Reporting Facility
EDT Latitude Longitude Course Direction KTS MPH feet Rate Location/Type
Fri 03:41:32 PM 40.8267 -77.8853 157° South 251 289 3,100  Level New Center
Fri 03:42:30 PM 40.7906 -77.8650 157° South 153 176 4,300 1,068 Climbing New Center
Fri 03:43:30 PM 40.7797 -77.8008 103° East 124 143 5,200 1,150 Climbing New Center
Fri 03:44:30 PM 40.7708 -77.7397 101° East 136 157 6,600 1,289 Climbing New Center
Fri 03:45:31 PM 40.7603 -77.6728 102° East 157 181 7,800 1,131 Climbing New Center
Fri 03:46:32 PM 40.7514 -77.6089 100° East 170 196 8,900 1,091 Climbing New Center
Fri 03:47:32 PM 40.7386 -77.5392 104° East 183 211 10,000 1,068 Climbing New Center
Fri 03:48:30 PM 40.7236 -77.4719 106° East 197 227 11,000 504 Climbing New Center
Fri 03:49:31 PM 40.7097 -77.3883 102° East 216 249 11,000  Level New Center
Fri 03:50:30 PM 40.6861 -77.2847 107° East 248 285 11,000 -50 Level New Center
Fri 03:51:31 PM 40.6686 -77.1900 104° East 261 300 10,900  Descending New Center
Fri 03:52:32 PM 40.6508 -77.0928 104° East 266 306 11,000 50 Climbing New Center
Fri 03:53:32 PM 40.6325 -77.0033 105° East 266 306 11,000  Level New Center
Fri 03:54:30 PM 40.6131 -76.8978 104° East 266 306 11,000  Level New Center
Fri 03:55:30 PM 40.5944 -76.8142 106° East 266 306 11,000  Level New Center
Fri 03:56:30 PM 40.5744 -76.7167 105° East 266 306 11,000  Level New Center
Fri 03:57:32 PM 40.5547 -76.6083 103° East 266 306 11,000  Level New Center
Fri 03:58:32 PM 40.5211 -76.5319 120° Southeast 265 305 11,000  Level New Center
Fri 03:59:32 PM 40.4792 -76.4519 125° Southeast 272 313 11,000  Level New Center
Fri 04:00:30 PM 40.4272 -76.3603 127° Southeast 272 313 11,000 -82 Level New Center
Fri 04:01:59 PM 40.3614 -76.2417 126° Southeast 275 316 10,800 -275 Descending FAA TRACON
Fri 04:02:19 PM 40.3450 -76.2158 130° Southeast 279 321 10,500 -1,200 Descending FAA TRACON
Fri 04:02:39 PM 40.3303 -76.1900 127° Southeast 283 326 10,000 -1,650 Descending FAA TRACON
Fri 04:02:59 PM 40.3119 -76.1581 127° Southeast 283 326 9,400 -1,500 Descending FAA TRACON
Fri 04:03:19 PM 40.2994 -76.1322 122° Southeast 278 320 9,000 -1,350 Descending FAA TRACON
Fri 04:03:39 PM 40.2872 -76.1067 122° Southeast 272 313 8,500 -1,350 Descending FAA TRACON
Fri 04:03:59 PM 40.2758 -76.0817 121° Southeast 260 299 8,100 -1,350 Descending FAA TRACON
Fri 04:04:19 PM 40.2614 -76.0533 124° Southeast 244 281 7,600 -1,050 Descending FAA TRACON
Fri 04:04:39 PM 40.2514 -76.0328 123° Southeast 230 265 7,400 -900 Descending FAA TRACON
Fri 04:04:59 PM 40.2375 -76.0078 126° Southeast 217 250 7,000 -600 Descending FAA TRACON
Fri 04:05:19 PM 40.2256 -75.9894 130° Southeast 216 249 7,000  Level FAA TRACON
Fri 04:05:39 PM 40.2144 -75.9706 128° Southeast 216 249 7,000  Level FAA TRACON
Fri 04:05:59 PM 40.1989 -75.9467 130° Southeast 219 252 7,000  Level FAA TRACON
Fri 04:06:19 PM 40.1872 -75.9275 129° Southeast 219 252 7,000  Level FAA TRACON
Fri 04:06:39 PM 40.1781 -75.9061 119° Southeast 223 257 7,000 -150 Level FAA TRACON
Fri 04:06:59 PM 40.1808 -75.8758 83° East 220 253 6,900 -450 Descending FAA TRACON
Fri 04:07:19 PM 40.1828 -75.8522 84° East 217 250 6,700 -450 Descending FAA TRACON
Fri 04:07:39 PM 40.1850 -75.8278 83° East 217 250 6,600 -450 Descending FAA TRACON
Fri 04:07:59 PM 40.1883 -75.7986 81° East 218 251 6,400 -600 Descending FAA TRACON
Fri 04:08:19 PM 40.1911 -75.7725 82° East 219 252 6,200 -450 Descending FAA TRACON
Fri 04:08:39 PM 40.1892 -75.7483 96° East 225 259 6,100 -600 Descending FAA TRACON
Fri 04:08:59 PM 40.1861 -75.7242 99° East 221 254 5,800 -1,050 Descending FAA TRACON
Fri 04:09:19 PM 40.1825 -75.6969 100° East 210 242 5,400 -1,050 Descending FAA TRACON
Fri 04:09:39 PM 40.1803 -75.6794 99° East 201 231 5,100 -1,050 Descending FAA TRACON
Fri 04:09:59 PM 40.1769 -75.6478 98° East 194 223 4,700 -1,050 Descending FAA TRACON
Fri 04:10:19 PM 40.1744 -75.6253 98° East 199 229 4,400 -900 Descending FAA TRACON
Fri 04:10:39 PM 40.1683 -75.6025 109° East 216 249 4,100 -600 Descending FAA TRACON
Fri 04:10:59 PM 40.1614 -75.5769 110° East 196 226 4,000  Descending FAA TRACON
Fri 04:11:19 PM 40.1564 -75.5547 106° East 198 228 4,100  Climbing FAA TRACON
Fri 04:11:39 PM 40.1508 -75.5325 108° East 207 238 4,000 -150 Descending FAA TRACON
Fri 04:11:59 PM 40.1458 -75.5103 106° East 208 239 4,000  Level FAA TRACON
Fri 04:12:19 PM 40.1361 -75.4819 114° Southeast 214 246 4,000 150 Level FAA TRACON
Fri 04:12:39 PM 40.1297 -75.4589 110° East 216 249 4,100  Climbing FAA TRACON
Fri 04:12:59 PM 40.1233 -75.4375 111° Southeast 217 250 4,000  Descending FAA TRACON
Fri 04:13:19 PM 40.1153 -75.4078 110° East 216 249 4,100  Climbing FAA TRACON
Fri 04:13:39 PM 40.1094 -75.3872 110° East 214 246 4,000 -150 Descending FAA TRACON
Fri 04:13:59 PM 40.1028 -75.3631 110° East 215 247 4,000  Level FAA TRACON
Fri 04:14:19 PM 40.0944 -75.3347 111° Southeast 213 245 4,000  Level FAA TRACON
Fri 04:14:39 PM 40.0883 -75.3117 109° East 216 249 4,000  Level FAA TRACON
Fri 04:14:59 PM 40.0828 -75.2900 109° East 216 249 4,000  Level FAA TRACON
Fri 04:15:19 PM 40.0747 -75.2606 110° East 215 247 4,000 150 Level FAA TRACON
Fri 04:15:39 PM 40.0650 -75.2406 122° Southeast 210 242 4,100  Climbing FAA TRACON
Fri 04:15:59 PM 40.0486 -75.2303 154° Southeast 213 245 4,000  Descending FAA TRACON
Fri 04:16:19 PM 40.0272 -75.2200 160° South 216 249 4,100  Climbing FAA TRACON
Fri 04:16:39 PM 40.0106 -75.2122 160° South 213 245 4,000 -150 Descending FAA TRACON
Fri 04:16:59 PM 39.9928 -75.2025 157° South 215 247 4,000  Level FAA TRACON
Fri 04:17:19 PM 39.9756 -75.1933 158° South 216 249 4,000  Level FAA TRACON
Fri 04:17:39 PM 39.9544 -75.1822 158° South 213 245 4,000 150 Level FAA TRACON
Fri 04:17:59 PM 39.9372 -75.1733 158° South 213 245 4,100 150 Climbing FAA TRACON
Fri 04:18:19 PM 39.9225 -75.1656 158° South 211 243 4,100 -150 Level FAA TRACON
Fri 04:18:39 PM 39.8989 -75.1531 158° South 215 247 4,000 -150 Descending FAA TRACON
Fri 04:18:59 PM 39.8814 -75.1439 158° South 214 246 4,000 -150 Level FAA TRACON
Fri 04:19:19 PM 39.8642 -75.1350 158° South 214 246 3,900 -600 Descending FAA TRACON
Fri 04:19:39 PM 39.8431 -75.1239 158° South 212 244 3,600 -900 Descending FAA TRACON
Fri 04:19:59 PM 39.8267 -75.1158 159° South 210 242 3,300 -1,050 Descending FAA TRACON
Fri 04:20:19 PM 39.8103 -75.1078 159° South 208 239 2,900 -1,050 Descending FAA TRACON
Fri 04:20:39 PM 39.7919 -75.1019 166° South 207 238 2,600 -1,050 Descending FAA TRACON
Fri 04:20:59 PM 39.7708 -75.1042 185° South 193 222 2,200 -750 Descending FAA TRACON
Fri 04:21:19 PM 39.7639 -75.1161 233° Southwest 193 222 2,100 -300 Descending FAA TRACON
Fri 04:21:39 PM 39.7606 -75.1383 259° West 167 192 2,000 -150 Descending FAA TRACON
Fri 04:21:59 PM 39.7656 -75.1583 288° West 163 188 2,000 -300 Level FAA TRACON
Fri 04:22:19 PM 39.7739 -75.1750 303° West 168 193 1,800 -450 Descending FAA TRACON
Fri 04:22:39 PM 39.7858 -75.1844 329° Northwest 159 183 1,700 -300 Descending FAA TRACON
Fri 04:22:59 PM 39.8017 -75.1928 338° Northwest 154 177 1,600 -150 Descending FAA TRACON
Fri 04:23:19 PM 39.8106 -75.1972 339° North 148 170 1,600 -600 Level FAA TRACON
Fri 04:23:39 PM 39.8247 -75.2044 339° North 139 160 1,200 -900 Descending FAA TRACON
Fri 04:23:59 PM 39.8369 -75.2106 339° North 123 142 1,000 -750 Descending FAA TRACON
Fri 04:24:19 PM 39.8458 -75.2150 339° North 114 131 700 -750 Descending FAA TRACON
Fri 04:24:39 PM 39.8547 -75.2200 337° Northwest 120 138 500 -750 Descending FAA TRACON
Fri 04:24:59 PM 39.8658 -75.2250 341° North 108 124 200 -600 Descending FAA TRACON
Fri 04:25:19 PM 39.8681 -75.2258 344° North 105 121 100 -300 Descending FAA TRACON
Fri 04:27:00 PM 39.8667 -75.2333 303° West  Level FlightAware

Login

Don't have an account? Register now (free) for customized features, flight alerts, and more!